createdAt,value
2022-08-27T00:00:52.968Z,12.82
2022-08-27T00:03:39.482Z,13.15
2022-08-27T00:06:27.359Z,11.93
2022-08-27T00:09:14.353Z,15.10
2022-08-27T00:12:04.343Z,15.45
2022-08-27T00:14:51.025Z,42.72
2022-08-27T00:17:37.681Z,29.38
2022-08-27T00:20:25.933Z,17.15
2022-08-27T00:23:12.498Z,21.65
2022-08-27T00:25:59.322Z,19.20
2022-08-27T00:28:48.198Z,23.13
2022-08-27T00:31:34.741Z,21.92
2022-08-27T00:34:23.133Z,17.02
2022-08-27T00:37:09.873Z,25.33
2022-08-27T00:39:56.207Z,22.63
2022-08-27T00:42:45.855Z,22.38
2022-08-27T00:45:38.476Z,19.05
2022-08-27T00:48:28.406Z,17.73
2022-08-27T00:51:14.806Z,24.88
2022-08-27T00:54:02.451Z,38.63
2022-08-27T00:56:51.819Z,30.77
2022-08-27T00:59:39.130Z,21.67
2022-08-27T01:02:30.559Z,20.88
2022-08-27T01:05:20.821Z,22.42
2022-08-27T01:08:13.401Z,21.38
2022-08-27T01:11:01.745Z,21.10
2022-08-27T01:14:00.147Z,21.95
2022-08-27T01:16:51.557Z,20.48
2022-08-27T01:19:43.566Z,20.27
2022-08-27T01:22:37.222Z,20.85
2022-08-27T01:25:25.745Z,21.17
2022-08-27T01:28:13.267Z,26.70
2022-08-27T01:30:59.526Z,20.08
2022-08-27T01:33:56.264Z,19.30
2022-08-27T01:36:42.956Z,16.27
2022-08-27T01:39:29.145Z,18.25
2022-08-27T01:42:20.846Z,19.00
2022-08-27T01:45:09.733Z,18.83
2022-08-27T01:47:56.805Z,19.52
2022-08-27T01:50:43.107Z,18.58
2022-08-27T01:53:29.496Z,17.38
2022-08-27T01:56:16.484Z,13.50
2022-08-27T01:59:04.237Z,18.92
2022-08-27T02:01:51.220Z,16.95
2022-08-27T02:04:37.585Z,17.13
2022-08-27T02:07:23.860Z,14.98
2022-08-27T02:10:12.843Z,15.77
2022-08-27T02:12:59.790Z,12.65
2022-08-27T02:15:48.025Z,18.05
2022-08-27T02:18:38.334Z,17.02
2022-08-27T02:21:27.978Z,15.35
2022-08-27T02:24:14.905Z,16.70
2022-08-27T02:27:01.879Z,11.23
2022-08-27T02:29:48.987Z,18.20
2022-08-27T02:32:37.930Z,10.40
2022-08-27T02:35:25.214Z,14.00
2022-08-27T02:38:12.719Z,15.20
2022-08-27T02:40:59.378Z,14.57
2022-08-27T02:43:45.686Z,12.30
2022-08-27T02:46:32.173Z,16.83
2022-08-27T02:49:20.166Z,14.70
2022-08-27T02:52:06.895Z,11.32
2022-08-27T02:54:53.677Z,9.30
2022-08-27T02:57:40.491Z,12.88
2022-08-27T03:00:28.611Z,9.60
2022-08-27T03:03:15.445Z,14.18
2022-08-27T03:06:03.005Z,7.88
2022-08-27T03:08:52.295Z,9.70
2022-08-27T03:11:39.956Z,12.40
2022-08-27T03:14:26.573Z,8.63
2022-08-27T03:17:30.314Z,9.80
2022-08-27T03:20:17.015Z,8.98
2022-08-27T03:23:04.898Z,7.07
2022-08-27T03:25:53.721Z,15.18
2022-08-27T03:28:40.201Z,11.57
2022-08-27T03:31:28.296Z,8.10
2022-08-27T03:34:14.746Z,10.13
2022-08-27T03:37:06.319Z,9.98
2022-08-27T03:39:54.877Z,6.70
2022-08-27T03:42:41.910Z,10.05
2022-08-27T03:45:28.561Z,9.90
2022-08-27T03:48:16.048Z,12.18
2022-08-27T03:51:06.838Z,10.98
2022-08-27T03:53:53.287Z,7.90
2022-08-27T03:56:41.552Z,20.42
2022-08-27T03:59:27.832Z,15.10
2022-08-27T04:02:14.982Z,9.07
2022-08-27T04:05:01.702Z,8.15
2022-08-27T04:07:48.059Z,8.30
2022-08-27T04:10:35.031Z,8.98
2022-08-27T04:13:24.103Z,10.68
2022-08-27T04:16:10.478Z,8.32
2022-08-27T04:18:57.134Z,12.73
2022-08-27T04:21:43.495Z,8.30
2022-08-27T04:24:31.402Z,9.73
2022-08-27T04:27:17.860Z,19.60
2022-08-27T04:30:09.290Z,12.32
2022-08-27T04:32:55.774Z,11.60
2022-08-27T04:35:42.743Z,13.75
2022-08-27T04:38:29.466Z,15.45
2022-08-27T04:41:23.027Z,13.75
2022-08-27T04:44:11.329Z,19.65
2022-08-27T04:47:01.220Z,14.23
2022-08-27T04:49:47.594Z,15.65
2022-08-27T04:52:33.834Z,19.98
2022-08-27T04:55:28.086Z,17.45
2022-08-27T04:58:14.998Z,21.08
2022-08-27T05:01:01.789Z,22.40
2022-08-27T05:03:49.656Z,24.42
2022-08-27T05:06:37.322Z,25.30
2022-08-27T05:09:24.645Z,24.48
2022-08-27T05:12:13.470Z,23.67
2022-08-27T05:14:59.689Z,25.02
2022-08-27T05:17:46.088Z,25.90
2022-08-27T05:20:34.305Z,28.02
2022-08-27T05:23:21.198Z,24.13
2022-08-27T05:26:08.839Z,22.95
2022-08-27T05:28:56.096Z,28.42
2022-08-27T05:31:43.248Z,30.40
2022-08-27T05:34:29.845Z,34.47
2022-08-27T05:37:18.054Z,29.00
2022-08-27T05:40:06.227Z,30.52
2022-08-27T05:42:53.044Z,30.70
2022-08-27T05:45:42.082Z,33.75
2022-08-27T05:48:28.438Z,30.77
2022-08-27T05:51:25.509Z,34.97
2022-08-27T05:54:19.446Z,26.05
2022-08-27T05:57:06.762Z,36.47
2022-08-27T06:00:11.478Z,32.97
2022-08-27T06:03:02.205Z,29.13
2022-08-27T06:05:49.010Z,31.67
2022-08-27T06:08:35.489Z,28.80
2022-08-27T06:11:23.515Z,34.35
2022-08-27T06:14:10.668Z,26.45
2022-08-27T06:16:58.563Z,39.72
2022-08-27T06:19:45.748Z,26.38
2022-08-27T06:22:31.915Z,29.80
2022-08-27T06:25:18.485Z,26.67
2022-08-27T06:28:06.694Z,27.00
2022-08-27T06:30:54.279Z,31.30
2022-08-27T06:33:42.174Z,26.80
2022-08-27T06:36:29.594Z,22.38
2022-08-27T06:39:16.970Z,29.70
2022-08-27T06:42:04.029Z,30.42
2022-08-27T06:44:51.974Z,26.25
2022-08-27T06:47:38.567Z,27.95
2022-08-27T06:50:27.312Z,17.92
2022-08-27T06:53:14.449Z,27.27
2022-08-27T06:56:00.677Z,20.95
2022-08-27T06:58:48.459Z,20.90
2022-08-27T07:01:38.521Z,25.25
2022-08-27T07:04:32.444Z,23.90
2022-08-27T07:07:28.062Z,19.38
2022-08-27T07:10:21.830Z,20.80
2022-08-27T07:13:08.103Z,19.20
2022-08-27T07:15:55.682Z,19.08
2022-08-27T07:18:43.746Z,23.77
2022-08-27T07:21:30.672Z,18.90
2022-08-27T07:24:17.518Z,20.90
2022-08-27T07:27:03.926Z,20.05
2022-08-27T07:29:50.479Z,19.05
2022-08-27T07:32:37.018Z,18.25
2022-08-27T07:35:24.703Z,19.10
2022-08-27T07:38:12.269Z,16.77
2022-08-27T07:40:59.477Z,19.17
2022-08-27T07:44:03.410Z,17.67
2022-08-27T07:46:50.948Z,15.15
2022-08-27T07:49:37.625Z,18.77
2022-08-27T07:52:26.662Z,21.45
2022-08-27T07:55:13.839Z,16.65
2022-08-27T07:58:00.826Z,15.80
2022-08-27T08:00:47.689Z,23.20
2022-08-27T08:03:34.213Z,16.52
2022-08-27T08:06:20.438Z,15.90
2022-08-27T08:09:08.490Z,19.17
2022-08-27T08:11:57.938Z,16.10
2022-08-27T08:14:44.470Z,13.52
2022-08-27T08:17:30.701Z,13.88
2022-08-27T08:20:27.612Z,16.38
2022-08-27T08:23:25.837Z,15.50
2022-08-27T08:26:14.219Z,13.55
2022-08-27T08:29:04.472Z,18.92
2022-08-27T08:31:50.711Z,18.00
2022-08-27T08:34:37.276Z,14.82
2022-08-27T08:37:24.531Z,14.38
2022-08-27T08:40:12.911Z,13.57
2022-08-27T08:43:03.345Z,15.93
2022-08-27T08:45:50.859Z,16.92
2022-08-27T08:48:41.285Z,20.50
2022-08-27T08:51:34.197Z,16.08
2022-08-27T08:54:24.104Z,18.35
2022-08-27T08:57:20.545Z,21.48
2022-08-27T09:00:13.376Z,21.10
2022-08-27T09:02:59.982Z,18.13
2022-08-27T09:05:54.714Z,21.38
2022-08-27T09:08:43.905Z,18.27
2022-08-27T09:11:40.515Z,17.65
2022-08-27T09:14:36.880Z,17.92
2022-08-27T09:17:25.695Z,18.75
2022-08-27T09:20:13.792Z,15.52
2022-08-27T09:23:11.974Z,17.48
2022-08-27T09:25:58.237Z,19.70
2022-08-27T09:29:02.005Z,18.15
2022-08-27T09:31:55.615Z,18.08
2022-08-27T09:34:45.693Z,17.45
2022-08-27T09:37:34.543Z,19.05
2022-08-27T09:40:32.009Z,16.30
2022-08-27T09:43:23.437Z,20.02
2022-08-27T09:46:20.417Z,18.83
2022-08-27T09:49:12.540Z,19.17
2022-08-27T09:52:00.132Z,18.80
2022-08-27T09:54:48.153Z,18.98
2022-08-27T09:57:37.434Z,21.52
2022-08-27T10:00:37.819Z,12.73
2022-08-27T10:03:24.374Z,17.00
2022-08-27T10:06:11.761Z,16.33
2022-08-27T10:09:07.127Z,14.07
2022-08-27T10:12:01.086Z,16.50
2022-08-27T10:14:51.289Z,13.70
2022-08-27T10:17:46.975Z,12.07
2022-08-27T10:20:42.749Z,14.63
2022-08-27T10:23:36.269Z,12.52
2022-08-27T10:26:33.158Z,12.73
2022-08-27T10:29:32.118Z,13.40
2022-08-27T10:32:32.946Z,13.45
2022-08-27T10:35:22.843Z,11.10
2022-08-27T10:38:17.747Z,8.50
2022-08-27T10:41:12.800Z,12.27
2022-08-27T10:44:20.098Z,11.93
2022-08-27T10:47:21.217Z,12.77
2022-08-27T10:50:12.677Z,9.57
2022-08-27T10:53:02.757Z,7.30
2022-08-27T10:55:52.953Z,10.48
2022-08-27T10:58:47.217Z,11.63
2022-08-27T11:01:44.690Z,11.45
2022-08-27T11:04:36.185Z,12.55
2022-08-27T11:07:26.789Z,9.40
2022-08-27T11:10:21.057Z,10.38
2022-08-27T11:13:13.929Z,12.88
2022-08-27T11:16:02.920Z,10.82
2022-08-27T11:18:55.188Z,9.18
2022-08-27T11:21:47.659Z,7.15
2022-08-27T11:24:49.730Z,10.02
2022-08-27T11:27:38.386Z,11.20
2022-08-27T11:30:30.490Z,15.38
2022-08-27T11:33:22.003Z,11.52
2022-08-27T11:36:28.832Z,12.60
2022-08-27T11:39:30.066Z,16.75
2022-08-27T11:42:26.532Z,14.52
2022-08-27T11:45:19.601Z,13.27
2022-08-27T11:48:18.766Z,14.18
2022-08-27T11:51:08.798Z,11.20
2022-08-27T11:54:00.217Z,10.57
2022-08-27T11:56:46.661Z,14.55
2022-08-27T11:59:35.117Z,11.27
2022-08-27T12:02:25.907Z,11.13
2022-08-27T12:05:26.840Z,9.60
2022-08-27T12:08:18.874Z,11.30
2022-08-27T12:11:25.017Z,13.43
2022-08-27T12:14:25.612Z,9.95
2022-08-27T12:17:21.076Z,8.73
2022-08-27T12:20:18.646Z,11.68
2022-08-27T12:23:34.937Z,7.03
2022-08-27T12:26:33.375Z,9.40
2022-08-27T12:29:31.332Z,11.35
2022-08-27T12:32:27.994Z,14.50
2022-08-27T12:35:17.364Z,11.23
2022-08-27T12:38:13.465Z,11.65
2022-08-27T12:41:05.490Z,15.02
2022-08-27T12:44:04.833Z,17.67
2022-08-27T12:46:54.657Z,12.18
2022-08-27T12:49:48.306Z,13.88
2022-08-27T12:53:11.950Z,11.75
2022-08-27T12:56:12.847Z,16.90
2022-08-27T12:59:10.708Z,11.52
2022-08-27T13:02:09.883Z,9.95
2022-08-27T13:04:56.377Z,14.50
2022-08-27T13:07:46.181Z,9.88
2022-08-27T13:10:32.938Z,10.80
2022-08-27T13:13:22.365Z,10.27
2022-08-27T13:16:10.414Z,10.23
2022-08-27T13:18:56.938Z,12.90
2022-08-27T13:21:49.681Z,9.25
2022-08-27T13:24:37.537Z,11.02
2022-08-27T13:27:29.168Z,11.65
2022-08-27T13:30:22.998Z,11.10
2022-08-27T13:33:25.986Z,12.20
2022-08-27T13:36:12.516Z,7.88
2022-08-27T13:38:59.919Z,14.02
2022-08-27T13:41:48.924Z,10.90
2022-08-27T13:44:37.246Z,10.88
2022-08-27T13:47:26.434Z,10.88
2022-08-27T13:50:22.636Z,15.35
2022-08-27T13:53:40.559Z,14.05
2022-08-27T13:56:29.403Z,13.30
2022-08-27T13:59:24.075Z,12.63
2022-08-27T14:02:22.532Z,19.52
2022-08-27T14:05:12.399Z,17.23
2022-08-27T14:08:02.866Z,17.45
2022-08-27T14:10:51.037Z,15.50
2022-08-27T14:13:43.709Z,15.63
2022-08-27T14:16:33.546Z,9.10
2022-08-27T14:19:27.599Z,10.20
2022-08-27T14:22:14.245Z,8.52
2022-08-27T14:25:02.669Z,11.25
2022-08-27T14:27:54.178Z,8.85
2022-08-27T14:30:41.508Z,9.85
2022-08-27T14:33:28.178Z,8.80
2022-08-27T14:36:15.977Z,12.35
2022-08-27T14:39:02.157Z,12.98
2022-08-27T14:41:50.165Z,12.45
2022-08-27T14:44:37.158Z,11.85
2022-08-27T14:47:27.174Z,23.80
2022-08-27T14:50:14.969Z,17.88
2022-08-27T14:53:01.485Z,10.68
2022-08-27T14:55:51.394Z,8.43
2022-08-27T14:58:39.867Z,11.30
2022-08-27T15:01:27.459Z,8.85
2022-08-27T15:04:14.442Z,7.30
2022-08-27T15:07:01.569Z,9.00
2022-08-27T15:09:48.134Z,9.10
2022-08-27T15:12:34.886Z,11.18
2022-08-27T15:15:23.062Z,23.08
2022-08-27T15:18:10.097Z,17.05
2022-08-27T15:20:56.859Z,11.55
2022-08-27T15:23:46.489Z,10.52
2022-08-27T15:26:34.632Z,12.32
2022-08-27T15:29:21.448Z,9.70
2022-08-27T15:32:11.336Z,8.88
2022-08-27T15:34:59.947Z,9.07
2022-08-27T15:37:46.565Z,11.13
2022-08-27T15:40:36.420Z,13.32
2022-08-27T15:43:23.218Z,10.77
2022-08-27T15:46:10.265Z,12.18
2022-08-27T15:48:58.008Z,9.52
2022-08-27T15:51:44.601Z,13.55
2022-08-27T15:54:31.013Z,11.63
2022-08-27T15:57:18.618Z,7.93
2022-08-27T16:00:06.770Z,11.45
2022-08-27T16:02:54.252Z,8.73
2022-08-27T16:05:45.170Z,13.27
2022-08-27T16:08:36.879Z,14.88
2022-08-27T16:11:29.188Z,10.05
2022-08-27T16:14:15.686Z,8.10
2022-08-27T16:17:02.855Z,10.38
2022-08-27T16:19:49.629Z,10.27
2022-08-27T16:22:37.743Z,10.32
2022-08-27T16:25:24.159Z,10.57
2022-08-27T16:28:10.607Z,9.18
2022-08-27T16:30:58.090Z,11.77
2022-08-27T16:33:44.976Z,8.88
2022-08-27T16:36:31.543Z,10.68
2022-08-27T16:39:19.257Z,9.85
2022-08-27T16:42:10.127Z,12.73
2022-08-27T16:44:56.665Z,8.30
2022-08-27T16:47:57.354Z,10.23
2022-08-27T16:50:43.988Z,8.55
2022-08-27T16:53:41.625Z,8.27
2022-08-27T16:56:31.805Z,12.35
2022-08-27T16:59:20.690Z,18.98
2022-08-27T17:02:09.239Z,10.10
2022-08-27T17:05:17.313Z,11.55
2022-08-27T17:08:02.841Z,11.00
2022-08-27T17:10:51.445Z,12.68
2022-08-27T17:13:39.588Z,10.25
2022-08-27T17:16:29.699Z,10.75
2022-08-27T17:19:18.566Z,7.90
2022-08-27T17:22:06.485Z,11.48
2022-08-27T17:24:52.666Z,14.20
2022-08-27T17:27:39.138Z,10.27
2022-08-27T17:30:27.130Z,10.48
2022-08-27T17:33:20.394Z,10.43
2022-08-27T17:36:08.886Z,17.70
2022-08-27T17:38:55.253Z,12.32
2022-08-27T17:41:43.209Z,10.10
2022-08-27T17:44:31.704Z,8.68
2022-08-27T17:47:20.696Z,9.73
2022-08-27T17:50:09.229Z,13.30
2022-08-27T17:52:55.329Z,19.33
2022-08-27T17:55:42.625Z,11.32
2022-08-27T17:58:28.837Z,15.05
2022-08-27T18:01:16.717Z,14.40
2022-08-27T18:04:05.559Z,11.77
2022-08-27T18:06:52.012Z,13.00
2022-08-27T18:09:38.389Z,19.55
2022-08-27T18:12:27.395Z,10.65
2022-08-27T18:15:19.633Z,10.00
2022-08-27T18:18:08.441Z,10.75
2022-08-27T18:20:56.678Z,12.57
2022-08-27T18:23:43.601Z,15.55
2022-08-27T18:26:31.150Z,12.52
2022-08-27T18:29:18.024Z,12.45
2022-08-27T18:32:05.223Z,18.42
2022-08-27T18:34:51.794Z,14.38
2022-08-27T18:37:39.621Z,9.45
2022-08-27T18:40:28.426Z,11.40
2022-08-27T18:43:15.578Z,13.63
2022-08-27T18:46:03.433Z,11.65
2022-08-27T18:48:50.209Z,10.65
2022-08-27T18:51:38.309Z,10.60
2022-08-27T18:54:27.254Z,16.77
2022-08-27T18:57:13.429Z,18.40
2022-08-27T18:59:59.968Z,15.60
2022-08-27T19:02:51.907Z,15.93
2022-08-27T19:05:38.722Z,9.68
2022-08-27T19:08:25.345Z,9.13
2022-08-27T19:11:13.325Z,12.02
2022-08-27T19:13:59.666Z,6.97
2022-08-27T19:16:50.145Z,8.63
2022-08-27T19:19:36.965Z,9.95
2022-08-27T19:22:24.053Z,11.93
2022-08-27T19:25:10.589Z,11.77
2022-08-27T19:27:58.458Z,8.50
2022-08-27T19:30:45.332Z,11.95
2022-08-27T19:33:31.929Z,26.90
2022-08-27T19:36:20.804Z,11.93
2022-08-27T19:39:07.833Z,12.30
2022-08-27T19:41:54.419Z,12.98
2022-08-27T19:44:42.061Z,9.07
2022-08-27T19:47:28.353Z,11.55
2022-08-27T19:50:17.432Z,15.43
2022-08-27T19:53:04.201Z,8.88
2022-08-27T19:55:50.814Z,13.25
2022-08-27T19:58:37.246Z,11.68
2022-08-27T20:01:25.072Z,9.40
2022-08-27T20:04:11.546Z,9.02
2022-08-27T20:06:58.142Z,12.93
2022-08-27T20:09:44.773Z,11.20
2022-08-27T20:12:31.003Z,13.23
2022-08-27T20:15:19.429Z,11.75
2022-08-27T20:18:07.872Z,12.57
2022-08-27T20:20:55.041Z,12.23
2022-08-27T20:23:41.290Z,9.52
2022-08-27T20:26:29.285Z,8.82
2022-08-27T20:29:32.171Z,7.40
2022-08-27T20:32:20.302Z,9.23
2022-08-27T20:35:09.771Z,8.15
2022-08-27T20:37:55.953Z,13.32
2022-08-27T20:40:42.106Z,16.55
2022-08-27T20:43:29.933Z,11.98
2022-08-27T20:46:17.225Z,10.77
2022-08-27T20:49:04.467Z,9.20
2022-08-27T20:52:03.170Z,11.57
2022-08-27T20:54:54.031Z,7.70
2022-08-27T20:58:06.360Z,7.97
2022-08-27T21:00:53.853Z,6.75
2022-08-27T21:03:40.479Z,8.18
2022-08-27T21:06:27.992Z,8.13
2022-08-27T21:09:16.974Z,9.65
2022-08-27T21:12:04.150Z,17.33
2022-08-27T21:14:51.162Z,9.98
2022-08-27T21:17:42.457Z,7.25
2022-08-27T21:20:28.865Z,9.05
2022-08-27T21:23:15.632Z,8.63
2022-08-27T21:26:06.238Z,11.80
2022-08-27T21:28:55.836Z,10.05
2022-08-27T21:31:42.457Z,10.48
2022-08-27T21:34:30.951Z,9.18
2022-08-27T21:37:17.562Z,7.20
2022-08-27T21:40:05.608Z,6.68
2022-08-27T21:42:53.722Z,9.18
2022-08-27T21:45:41.653Z,7.32
2022-08-27T21:48:28.873Z,10.48
2022-08-27T21:51:24.404Z,6.40
2022-08-27T21:54:11.590Z,7.97
2022-08-27T21:56:58.204Z,9.95
2022-08-27T21:59:48.211Z,6.47
2022-08-27T22:02:40.087Z,9.30
2022-08-27T22:05:26.990Z,12.10
2022-08-27T22:08:15.080Z,5.78
2022-08-27T22:11:02.421Z,16.65
2022-08-27T22:13:48.714Z,8.73
2022-08-27T22:16:37.410Z,9.75
2022-08-27T22:19:24.378Z,6.82
2022-08-27T22:22:10.824Z,9.88
2022-08-27T22:24:57.121Z,8.48
2022-08-27T22:27:43.676Z,8.35
2022-08-27T22:30:30.006Z,6.90
2022-08-27T22:33:18.848Z,8.00
2022-08-27T22:36:05.287Z,5.43
2022-08-27T22:38:51.625Z,8.85
2022-08-27T22:41:37.876Z,7.55
2022-08-27T22:44:29.404Z,7.38
2022-08-27T22:47:15.658Z,14.10
2022-08-27T22:50:04.509Z,8.85
2022-08-27T22:52:51.665Z,6.10
2022-08-27T22:55:38.278Z,10.35
2022-08-27T22:58:24.781Z,9.70
2022-08-27T23:01:11.147Z,6.13
2022-08-27T23:03:57.631Z,6.38
2022-08-27T23:06:45.657Z,11.50
2022-08-27T23:09:33.333Z,8.43
2022-08-27T23:12:20.030Z,44.83
2022-08-27T23:15:08.600Z,19.35
2022-08-27T23:17:55.424Z,7.97
2022-08-27T23:20:41.990Z,5.65
2022-08-27T23:23:30.800Z,10.35
2022-08-27T23:26:34.906Z,5.15
2022-08-27T23:29:22.933Z,5.85
2022-08-27T23:32:09.618Z,6.32
2022-08-27T23:34:56.169Z,4.78
2022-08-27T23:37:42.488Z,9.88
2022-08-27T23:40:30.277Z,7.85
2022-08-27T23:43:18.237Z,8.27
2022-08-27T23:46:05.255Z,9.18
2022-08-27T23:48:51.576Z,9.52
2022-08-27T23:51:37.786Z,8.55
2022-08-27T23:54:24.177Z,7.63
2022-08-27T23:57:11.721Z,7.82
2022-08-27T23:59:58.341Z,7.70
